createdAt,value
2022-09-28T00:02:10.517Z,51.10
2022-09-28T00:04:38.126Z,50.17
2022-09-28T00:07:05.602Z,51.10
2022-09-28T00:09:34.571Z,51.10
2022-09-28T00:12:02.516Z,50.00
2022-09-28T00:14:31.457Z,52.30
2022-09-28T00:16:58.963Z,53.73
2022-09-28T00:19:26.578Z,50.83
2022-09-28T00:21:54.072Z,50.07
2022-09-28T00:24:26.610Z,51.47
2022-09-28T00:26:58.795Z,50.27
2022-09-28T00:29:27.791Z,51.83
2022-09-28T00:31:59.857Z,52.10
2022-09-28T00:34:27.930Z,49.90
2022-09-28T00:36:55.581Z,49.80
2022-09-28T00:39:23.308Z,49.17
2022-09-28T00:41:51.071Z,51.23
2022-09-28T00:44:41.936Z,51.13
2022-09-28T00:47:32.123Z,50.00
2022-09-28T00:50:03.017Z,48.93
2022-09-28T00:52:34.842Z,50.53
2022-09-28T00:55:05.460Z,49.63
2022-09-28T00:57:33.326Z,49.50
2022-09-28T01:00:03.191Z,49.47
2022-09-28T01:02:30.764Z,49.87
2022-09-28T01:04:59.087Z,49.23
2022-09-28T01:07:26.776Z,49.40
2022-09-28T01:09:54.980Z,50.80
2022-09-28T01:12:22.520Z,51.30
2022-09-28T01:14:50.347Z,49.17
2022-09-28T01:17:24.395Z,47.70
2022-09-28T01:20:05.386Z,48.40
2022-09-28T01:22:48.447Z,48.90
2022-09-28T01:25:25.997Z,48.33
2022-09-28T01:27:56.019Z,48.53
2022-09-28T01:30:23.728Z,48.30
2022-09-28T01:32:54.574Z,49.80
2022-09-28T01:35:25.255Z,49.80
2022-09-28T01:37:54.216Z,50.27
2022-09-28T01:40:24.005Z,48.63
2022-09-28T01:42:55.959Z,49.30
2022-09-28T01:45:25.345Z,47.27
2022-09-28T01:47:55.355Z,51.37
2022-09-28T01:50:24.692Z,51.10
2022-09-28T01:52:55.697Z,50.67
2022-09-28T01:55:29.868Z,50.10
2022-09-28T01:58:03.261Z,48.07
2022-09-28T02:00:30.911Z,48.63
2022-09-28T02:03:07.631Z,49.17
2022-09-28T02:05:37.207Z,50.37
2022-09-28T02:08:07.873Z,50.23
2022-09-28T02:10:40.556Z,52.20
2022-09-28T02:13:13.486Z,49.20
2022-09-28T02:15:44.242Z,51.40
2022-09-28T02:18:11.811Z,51.23
2022-09-28T02:20:40.896Z,49.70
2022-09-28T02:23:08.927Z,49.67
2022-09-28T02:25:40.788Z,49.40
2022-09-28T02:28:11.154Z,52.80
2022-09-28T02:30:40.899Z,50.30
2022-09-28T02:33:12.768Z,49.47
2022-09-28T02:35:40.714Z,52.00
2022-09-28T02:38:08.221Z,55.80
2022-09-28T02:40:37.753Z,49.23
2022-09-28T02:43:13.060Z,49.67
2022-09-28T02:45:49.246Z,51.90
2022-09-28T02:48:42.689Z,51.87
2022-09-28T02:51:19.920Z,49.83
2022-09-28T02:54:04.371Z,49.37
2022-09-28T02:56:42.567Z,51.47
2022-09-28T02:59:19.115Z,49.43
2022-09-28T03:01:52.881Z,51.77
2022-09-28T03:04:29.239Z,50.40
2022-09-28T03:07:01.320Z,50.60
2022-09-28T03:09:33.718Z,50.07
2022-09-28T03:12:05.961Z,51.97
2022-09-28T03:14:34.936Z,55.03
2022-09-28T03:17:02.438Z,51.93
2022-09-28T03:19:32.553Z,51.67
2022-09-28T03:22:00.130Z,50.97
2022-09-28T03:24:27.659Z,55.50
2022-09-28T03:26:55.423Z,52.40
2022-09-28T03:29:22.912Z,52.27
2022-09-28T03:31:51.805Z,52.33
2022-09-28T03:34:19.667Z,52.50
2022-09-28T03:36:47.144Z,53.73
2022-09-28T03:39:14.731Z,51.43
2022-09-28T03:41:42.602Z,54.63
2022-09-28T03:44:10.078Z,55.93
2022-09-28T03:46:37.583Z,52.30
2022-09-28T03:49:06.422Z,50.63
2022-09-28T03:51:33.927Z,51.40
2022-09-28T03:54:01.684Z,55.00
2022-09-28T03:56:29.189Z,52.33
2022-09-28T03:58:56.678Z,53.03
2022-09-28T04:01:24.205Z,50.93
2022-09-28T04:03:55.024Z,50.80
2022-09-28T04:06:23.967Z,52.60
2022-09-28T04:08:51.514Z,53.63
2022-09-28T04:11:19.053Z,51.90
2022-09-28T04:13:49.395Z,54.47
2022-09-28T04:16:17.891Z,51.37
2022-09-28T04:18:45.494Z,53.73
2022-09-28T04:21:14.024Z,54.67
2022-09-28T04:23:43.246Z,56.67
2022-09-28T04:26:16.495Z,50.13
2022-09-28T04:29:06.190Z,60.00
2022-09-28T04:31:39.117Z,51.97
2022-09-28T04:34:06.674Z,53.50
2022-09-28T04:36:34.246Z,33.83
2022-09-28T04:39:03.151Z,38.33
2022-09-28T04:41:30.668Z,38.17
2022-09-28T04:43:58.162Z,40.37
2022-09-28T04:46:26.046Z,40.70
2022-09-28T04:48:53.542Z,39.70
2022-09-28T04:51:21.052Z,39.17
2022-09-28T04:53:48.547Z,42.87
2022-09-28T04:56:18.560Z,40.60
2022-09-28T04:58:51.786Z,40.43
2022-09-28T05:01:20.966Z,40.70
2022-09-28T05:03:48.527Z,41.23
2022-09-28T05:06:16.567Z,40.80
2022-09-28T05:08:46.665Z,43.53
2022-09-28T05:11:15.103Z,40.80
2022-09-28T05:13:45.662Z,45.30
2022-09-28T05:16:15.681Z,43.50
2022-09-28T05:18:43.626Z,45.43
2022-09-28T05:21:12.678Z,43.50
2022-09-28T05:23:40.223Z,42.10
2022-09-28T05:26:08.040Z,43.97
2022-09-28T05:28:35.569Z,43.73
2022-09-28T05:31:05.372Z,43.33
2022-09-28T05:33:33.729Z,42.50
2022-09-28T05:36:02.050Z,43.37
2022-09-28T05:38:30.128Z,41.87
2022-09-28T05:40:57.902Z,43.53
2022-09-28T05:43:25.744Z,42.57
2022-09-28T05:45:55.810Z,42.90
2022-09-28T05:48:25.022Z,41.60
2022-09-28T05:50:52.999Z,42.77
2022-09-28T05:53:20.694Z,43.97
2022-09-28T05:55:48.196Z,43.00
2022-09-28T05:58:15.754Z,43.43
2022-09-28T06:00:43.724Z,44.47
2022-09-28T06:03:12.531Z,40.27
2022-09-28T06:05:41.661Z,45.33
2022-09-28T06:08:11.505Z,44.10
2022-09-28T06:10:39.255Z,43.60
2022-09-28T06:13:07.415Z,42.77
2022-09-28T06:15:36.087Z,42.70
2022-09-28T06:18:05.278Z,42.97
2022-09-28T06:20:34.898Z,41.93
2022-09-28T06:23:04.231Z,41.50
2022-09-28T06:25:31.733Z,42.40
2022-09-28T06:28:00.602Z,42.80
2022-09-28T06:30:29.617Z,42.87
2022-09-28T06:32:58.124Z,42.20
2022-09-28T06:35:27.155Z,42.37
2022-09-28T06:37:55.020Z,42.77
2022-09-28T06:40:24.771Z,43.37
2022-09-28T06:42:56.975Z,43.47
2022-09-28T06:45:25.271Z,42.97
2022-09-28T06:47:57.339Z,43.40
2022-09-28T06:50:25.878Z,42.47
2022-09-28T06:52:53.775Z,43.93
2022-09-28T06:55:21.673Z,41.63
2022-09-28T06:57:58.926Z,42.97
2022-09-28T07:00:26.766Z,44.13
2022-09-28T07:02:54.321Z,42.80
2022-09-28T07:05:27.072Z,43.73
2022-09-28T07:07:56.167Z,43.57
2022-09-28T07:10:24.265Z,41.93
2022-09-28T07:12:53.271Z,42.50
2022-09-28T07:15:21.276Z,43.53
2022-09-28T07:18:00.537Z,43.27
2022-09-28T07:20:30.479Z,41.37
2022-09-28T07:23:10.422Z,42.27
2022-09-28T07:25:45.292Z,42.23
2022-09-28T07:28:14.660Z,42.47
2022-09-28T07:30:44.186Z,45.07
2022-09-28T07:33:14.300Z,42.20
2022-09-28T07:35:42.900Z,41.27
2022-09-28T07:38:11.492Z,42.53
2022-09-28T07:40:56.916Z,42.70
2022-09-28T07:43:25.896Z,43.70
2022-09-28T07:45:55.596Z,44.23
2022-09-28T07:48:23.747Z,42.17
2022-09-28T07:50:52.171Z,43.10
2022-09-28T07:53:20.153Z,42.27
2022-09-28T07:55:51.928Z,42.37
2022-09-28T07:58:20.269Z,42.47
2022-09-28T08:00:49.683Z,44.03
2022-09-28T08:03:17.703Z,42.13
2022-09-28T08:05:46.784Z,43.93
2022-09-28T08:08:14.804Z,42.33
2022-09-28T08:10:46.993Z,44.20
2022-09-28T08:13:16.318Z,42.70
2022-09-28T08:15:43.831Z,44.30
2022-09-28T08:18:12.788Z,43.87
2022-09-28T08:20:57.747Z,42.57
2022-09-28T08:23:26.016Z,44.10
2022-09-28T08:25:53.871Z,43.77
2022-09-28T08:28:22.507Z,45.23
2022-09-28T08:30:50.609Z,46.97
2022-09-28T08:33:21.269Z,44.10
2022-09-28T08:35:49.673Z,44.07
2022-09-28T08:38:17.587Z,44.90
2022-09-28T08:40:51.393Z,43.83
2022-09-28T08:43:33.921Z,44.63
2022-09-28T08:46:01.805Z,44.77
2022-09-28T08:48:52.408Z,43.43
2022-09-28T08:51:31.995Z,42.90
2022-09-28T08:54:04.854Z,43.07
2022-09-28T08:56:40.271Z,45.00
2022-09-28T08:59:12.814Z,44.17
2022-09-28T09:01:45.999Z,45.60
2022-09-28T09:04:15.221Z,46.70
2022-09-28T09:06:55.205Z,44.63
2022-09-28T09:09:29.326Z,44.80
2022-09-28T09:12:06.241Z,45.40
2022-09-28T09:15:15.511Z,48.63
2022-09-28T09:17:49.776Z,48.90
2022-09-28T09:20:21.263Z,47.33
2022-09-28T09:22:57.678Z,44.00
2022-09-28T09:25:28.250Z,45.50
2022-09-28T09:28:26.202Z,48.97
2022-09-28T09:31:01.430Z,48.00
2022-09-28T09:33:43.694Z,45.77
2022-09-28T09:36:21.855Z,45.47
2022-09-28T09:38:57.999Z,50.77
2022-09-28T09:41:35.288Z,48.43
2022-09-28T09:44:31.372Z,49.57
2022-09-28T09:47:01.958Z,45.10
2022-09-28T09:49:35.064Z,45.60
2022-09-28T09:52:07.323Z,47.53
2022-09-28T09:54:38.731Z,47.23
2022-09-28T09:57:11.417Z,49.43
2022-09-28T09:59:41.321Z,50.40
2022-09-28T10:02:16.976Z,46.30
2022-09-28T10:04:46.858Z,48.27
2022-09-28T10:07:22.260Z,47.23
2022-09-28T10:09:50.679Z,48.70
2022-09-28T10:12:21.047Z,44.57
2022-09-28T10:14:49.479Z,47.20
2022-09-28T10:17:20.090Z,47.20
2022-09-28T10:19:47.670Z,46.30
2022-09-28T10:22:19.065Z,46.23
2022-09-28T10:24:48.747Z,47.70
2022-09-28T10:27:18.636Z,46.47
2022-09-28T10:29:51.936Z,49.30
2022-09-28T10:32:22.274Z,45.30
2022-09-28T10:34:51.045Z,47.67
2022-09-28T10:37:20.420Z,46.90
2022-09-28T10:39:52.171Z,47.53
2022-09-28T10:42:22.355Z,46.73
2022-09-28T10:44:52.788Z,47.93
2022-09-28T10:47:21.256Z,45.87
2022-09-28T10:49:50.782Z,46.93
2022-09-28T10:52:37.626Z,45.77
2022-09-28T10:55:26.094Z,46.30
2022-09-28T10:57:53.900Z,45.63
2022-09-28T11:00:32.249Z,45.43
2022-09-28T11:03:00.275Z,46.20
2022-09-28T11:05:28.619Z,46.90
2022-09-28T11:07:58.490Z,47.43
2022-09-28T11:10:28.427Z,46.97
2022-09-28T11:12:56.756Z,47.17
2022-09-28T11:15:28.236Z,45.23
2022-09-28T11:17:55.751Z,49.17
2022-09-28T11:20:35.497Z,49.87
2022-09-28T11:23:20.387Z,48.30
2022-09-28T11:25:58.520Z,48.73
2022-09-28T11:28:32.651Z,48.20
2022-09-28T11:31:01.380Z,47.90
2022-09-28T11:33:32.916Z,45.57
2022-09-28T11:36:11.802Z,47.60
2022-09-28T11:38:47.414Z,48.70
2022-09-28T11:41:25.794Z,46.57
2022-09-28T11:44:03.930Z,47.90
2022-09-28T11:46:35.164Z,46.00
2022-09-28T11:49:08.191Z,47.70
2022-09-28T11:51:37.437Z,48.60
2022-09-28T11:54:14.194Z,50.17
2022-09-28T11:56:44.250Z,46.53
2022-09-28T11:59:14.376Z,46.57
2022-09-28T12:01:45.272Z,47.10
2022-09-28T12:04:16.395Z,51.13
2022-09-28T12:06:48.280Z,46.47
2022-09-28T12:09:22.443Z,54.40
2022-09-28T12:11:52.595Z,49.67
2022-09-28T12:14:22.526Z,50.30
2022-09-28T12:17:05.304Z,49.27
2022-09-28T12:19:36.783Z,48.97
2022-09-28T12:22:06.663Z,48.43
2022-09-28T12:24:40.023Z,48.37
2022-09-28T12:27:12.939Z,48.57
2022-09-28T12:29:42.810Z,51.00
2022-09-28T12:32:15.306Z,46.67
2022-09-28T12:34:43.185Z,49.83
2022-09-28T12:37:33.016Z,48.07
2022-09-28T12:40:20.775Z,48.07
2022-09-28T12:43:05.225Z,49.50
2022-09-28T12:46:06.686Z,47.40
2022-09-28T12:48:56.666Z,47.50
2022-09-28T12:51:44.886Z,46.87
2022-09-28T12:54:25.202Z,52.33
2022-09-28T12:57:00.302Z,48.00
2022-09-28T12:59:32.264Z,52.43
2022-09-28T13:02:22.278Z,48.73
2022-09-28T13:05:01.325Z,49.37
2022-09-28T13:07:33.267Z,48.83
2022-09-28T13:10:14.606Z,47.40
2022-09-28T13:12:53.728Z,51.63
2022-09-28T13:15:32.041Z,48.60
2022-09-28T13:18:07.074Z,47.00
2022-09-28T13:20:49.207Z,47.33
2022-09-28T13:23:20.559Z,52.57
2022-09-28T13:25:52.019Z,51.30
2022-09-28T13:28:26.269Z,47.67
2022-09-28T13:30:56.472Z,51.47
2022-09-28T13:33:30.279Z,47.67
2022-09-28T13:35:57.809Z,48.30
2022-09-28T13:38:51.856Z,48.00
2022-09-28T13:41:29.596Z,48.90
2022-09-28T13:44:27.287Z,48.07
2022-09-28T13:47:19.982Z,49.57
2022-09-28T13:49:57.428Z,48.47
2022-09-28T13:52:33.587Z,46.83
2022-09-28T13:55:15.481Z,49.70
2022-09-28T13:57:47.530Z,45.93
2022-09-28T14:00:22.030Z,46.20
2022-09-28T14:02:55.262Z,47.43
2022-09-28T14:05:46.083Z,50.13
2022-09-28T14:08:34.926Z,47.33
2022-09-28T14:11:25.780Z,46.77
2022-09-28T14:14:00.464Z,48.57
2022-09-28T14:16:32.062Z,46.80
2022-09-28T14:19:02.816Z,46.53
2022-09-28T14:21:55.588Z,44.23
2022-09-28T14:24:30.483Z,48.70
2022-09-28T14:27:11.135Z,50.07
2022-09-28T14:29:39.986Z,51.50
2022-09-28T14:32:24.682Z,47.33
2022-09-28T14:34:59.605Z,50.40
2022-09-28T14:37:46.764Z,52.17
2022-09-28T14:40:36.475Z,48.43
2022-09-28T14:43:26.173Z,50.00
2022-09-28T14:46:29.241Z,50.77
2022-09-28T14:49:01.630Z,48.97
2022-09-28T14:51:45.130Z,48.27
2022-09-28T14:54:18.492Z,51.60
2022-09-28T14:56:49.551Z,47.90
2022-09-28T14:59:19.663Z,49.70
2022-09-28T15:01:50.623Z,50.87
2022-09-28T15:04:20.117Z,51.80
2022-09-28T15:06:49.844Z,50.30
2022-09-28T15:09:28.045Z,48.20
2022-09-28T15:12:00.694Z,49.40
2022-09-28T15:14:31.615Z,53.43
2022-09-28T15:17:03.323Z,49.50
2022-09-28T15:19:34.599Z,51.20
2022-09-28T15:22:02.095Z,49.13
2022-09-28T15:24:34.325Z,49.53
2022-09-28T15:27:02.365Z,51.00
2022-09-28T15:29:33.220Z,55.63
2022-09-28T15:32:00.890Z,48.43
2022-09-28T15:34:56.383Z,49.63
2022-09-28T15:37:26.208Z,46.57
2022-09-28T15:39:54.977Z,48.73
2022-09-28T15:42:22.844Z,47.70
2022-09-28T15:45:07.715Z,48.80
2022-09-28T15:47:36.123Z,53.77
2022-09-28T15:50:06.163Z,46.77
2022-09-28T15:52:38.606Z,47.67
2022-09-28T15:55:18.358Z,48.90
2022-09-28T15:57:45.904Z,50.07
2022-09-28T16:00:26.224Z,50.03
2022-09-28T16:03:05.693Z,50.30
2022-09-28T16:05:37.739Z,46.73
2022-09-28T16:08:12.656Z,46.80
2022-09-28T16:10:53.648Z,49.47
2022-09-28T16:13:23.824Z,47.00
2022-09-28T16:15:57.902Z,48.40
2022-09-28T16:18:26.673Z,49.20
2022-09-28T16:20:55.520Z,47.40
2022-09-28T16:23:27.067Z,48.37
2022-09-28T16:25:58.669Z,48.57
2022-09-28T16:28:51.589Z,49.47
2022-09-28T16:31:33.115Z,48.60
2022-09-28T16:34:02.216Z,48.30
2022-09-28T16:36:45.695Z,49.13
2022-09-28T16:39:16.242Z,48.40
2022-09-28T16:41:46.426Z,47.33
2022-09-28T16:44:20.553Z,53.67
2022-09-28T16:46:48.183Z,51.03
2022-09-28T16:49:20.533Z,49.63
2022-09-28T16:51:48.596Z,56.53
2022-09-28T16:54:37.270Z,49.97
2022-09-28T16:57:06.759Z,47.40
2022-09-28T16:59:34.628Z,55.30
2022-09-28T17:02:02.116Z,46.80
2022-09-28T17:04:29.680Z,48.70
2022-09-28T17:06:58.261Z,47.50
2022-09-28T17:09:27.146Z,49.80
2022-09-28T17:11:56.040Z,48.90
2022-09-28T17:14:24.399Z,48.93
2022-09-28T17:17:11.579Z,50.43
2022-09-28T17:19:41.398Z,49.33
2022-09-28T17:22:09.163Z,47.73
2022-09-28T17:24:38.113Z,46.63
2022-09-28T17:27:06.861Z,47.07
2022-09-28T17:29:34.399Z,51.07
2022-09-28T17:32:02.148Z,46.30
2022-09-28T17:34:29.659Z,47.57
2022-09-28T17:36:57.154Z,46.47
2022-09-28T17:39:25.355Z,47.90
2022-09-28T17:41:54.203Z,47.80
2022-09-28T17:44:21.955Z,46.30
2022-09-28T17:46:51.137Z,47.10
2022-09-28T17:49:19.118Z,48.17
2022-09-28T17:51:46.913Z,56.40
2022-09-28T17:54:16.842Z,50.10
2022-09-28T17:56:44.392Z,45.37
2022-09-28T17:59:15.248Z,47.57
2022-09-28T18:01:42.799Z,47.83
2022-09-28T18:04:33.198Z,49.80
2022-09-28T18:07:00.953Z,47.30
2022-09-28T18:09:28.476Z,45.80
2022-09-28T18:12:01.277Z,49.77
2022-09-28T18:14:30.162Z,49.97
2022-09-28T18:16:57.684Z,48.00
2022-09-28T18:19:28.624Z,46.23
2022-09-28T18:21:59.374Z,47.20
2022-09-28T18:24:27.003Z,45.23
2022-09-28T18:26:54.497Z,48.30
2022-09-28T18:29:22.042Z,49.90
2022-09-28T18:31:50.906Z,49.63
2022-09-28T18:34:18.531Z,49.53
2022-09-28T18:36:46.312Z,49.47
2022-09-28T18:39:13.804Z,48.47
2022-09-28T18:41:42.680Z,46.47
2022-09-28T18:44:10.794Z,48.30
2022-09-28T18:46:38.481Z,47.50
2022-09-28T18:49:07.486Z,48.40
2022-09-28T18:51:35.011Z,46.23
2022-09-28T18:54:07.036Z,49.47
2022-09-28T18:56:37.150Z,46.03
2022-09-28T18:59:06.794Z,47.73
2022-09-28T19:01:37.872Z,46.47
2022-09-28T19:04:09.584Z,52.70
2022-09-28T19:06:40.599Z,47.10
2022-09-28T19:09:08.897Z,47.47
2022-09-28T19:11:36.455Z,46.63
2022-09-28T19:14:04.300Z,50.60
2022-09-28T19:16:33.593Z,48.17
2022-09-28T19:19:02.682Z,47.60
2022-09-28T19:21:32.462Z,49.37
2022-09-28T19:24:01.651Z,48.30
2022-09-28T19:26:29.968Z,46.60
2022-09-28T19:28:58.379Z,48.00
2022-09-28T19:31:26.661Z,46.40
2022-09-28T19:33:54.157Z,47.43
2022-09-28T19:36:23.939Z,47.10
2022-09-28T19:38:53.356Z,48.63
2022-09-28T19:41:39.304Z,47.90
2022-09-28T19:44:13.019Z,49.03
2022-09-28T19:46:41.072Z,43.67
2022-09-28T19:49:10.404Z,47.10
2022-09-28T19:51:46.906Z,50.30
2022-09-28T19:54:33.117Z,48.93
2022-09-28T19:57:07.737Z,51.27
2022-09-28T19:59:36.413Z,53.70
2022-09-28T20:02:04.154Z,49.17
2022-09-28T20:04:31.723Z,48.83
2022-09-28T20:06:59.226Z,48.30
2022-09-28T20:09:28.087Z,46.93
2022-09-28T20:11:55.596Z,51.87
2022-09-28T20:14:25.786Z,49.23
2022-09-28T20:16:55.772Z,51.80
2022-09-28T20:19:23.367Z,50.37
2022-09-28T20:21:51.314Z,50.30
2022-09-28T20:24:19.087Z,48.57
2022-09-28T20:26:49.441Z,51.97
2022-09-28T20:29:17.430Z,49.67
2022-09-28T20:31:45.576Z,54.20
2022-09-28T20:34:13.168Z,53.40
2022-09-28T20:36:42.306Z,52.53
2022-09-28T20:39:11.177Z,53.27
2022-09-28T20:41:38.771Z,55.10
2022-09-28T20:44:07.763Z,52.70
2022-09-28T20:46:35.817Z,52.17
2022-09-28T20:49:04.129Z,49.50
2022-09-28T20:51:31.894Z,49.80
2022-09-28T20:54:00.095Z,50.80
2022-09-28T20:56:28.478Z,49.77
2022-09-28T20:58:56.826Z,49.77
2022-09-28T21:01:27.281Z,49.03
2022-09-28T21:03:56.183Z,50.60
2022-09-28T21:06:25.547Z,50.10
2022-09-28T21:08:53.361Z,49.87
2022-09-28T21:11:22.216Z,49.60
2022-09-28T21:13:53.043Z,51.13
2022-09-28T21:16:20.876Z,48.20
2022-09-28T21:18:49.758Z,49.30
2022-09-28T21:21:18.623Z,47.20
2022-09-28T21:23:46.419Z,51.93
2022-09-28T21:26:18.765Z,49.97
2022-09-28T21:28:46.543Z,51.17
2022-09-28T21:31:15.345Z,47.07
2022-09-28T21:33:42.917Z,49.30
2022-09-28T21:36:12.226Z,49.33
2022-09-28T21:38:39.743Z,49.30
2022-09-28T21:41:07.303Z,46.73
2022-09-28T21:43:34.796Z,49.90
2022-09-28T21:46:02.749Z,47.80
2022-09-28T21:48:30.946Z,46.90
2022-09-28T21:50:59.711Z,48.07
2022-09-28T21:53:30.056Z,48.27
2022-09-28T21:55:58.382Z,48.80
2022-09-28T21:58:28.246Z,49.17
2022-09-28T22:01:02.201Z,49.37
2022-09-28T22:03:30.318Z,48.30
2022-09-28T22:05:57.901Z,48.83
2022-09-28T22:08:25.907Z,48.30
2022-09-28T22:11:01.487Z,49.53
2022-09-28T22:13:29.145Z,49.33
2022-09-28T22:15:57.682Z,48.10
2022-09-28T22:18:25.453Z,48.13
2022-09-28T22:20:59.502Z,49.43
2022-09-28T22:23:27.169Z,48.40
2022-09-28T22:26:01.058Z,49.30
2022-09-28T22:28:29.888Z,50.47
2022-09-28T22:30:58.019Z,49.47
2022-09-28T22:33:25.848Z,49.00
2022-09-28T22:35:53.781Z,48.77
2022-09-28T22:38:21.858Z,48.70
2022-09-28T22:40:49.817Z,49.43
2022-09-28T22:43:18.754Z,48.17
2022-09-28T22:45:46.518Z,50.70
2022-09-28T22:48:14.260Z,48.93
2022-09-28T22:50:49.091Z,48.93
2022-09-28T22:53:16.583Z,48.27
2022-09-28T22:55:44.098Z,47.97
2022-09-28T22:58:11.644Z,46.63
2022-09-28T23:00:40.566Z,49.77
2022-09-28T23:03:08.200Z,46.17
2022-09-28T23:05:35.786Z,45.83
2022-09-28T23:08:03.311Z,48.07
2022-09-28T23:10:30.825Z,47.27
2022-09-28T23:12:58.346Z,47.67
2022-09-28T23:15:26.122Z,47.23
2022-09-28T23:17:55.079Z,48.60
2022-09-28T23:20:23.564Z,51.20
2022-09-28T23:22:51.377Z,50.20
2022-09-28T23:25:19.520Z,49.07
2022-09-28T23:27:47.563Z,50.20
2022-09-28T23:30:15.538Z,48.87
2022-09-28T23:32:43.162Z,50.20
2022-09-28T23:35:12.831Z,51.57
2022-09-28T23:37:40.326Z,50.93
2022-09-28T23:40:08.512Z,49.40
2022-09-28T23:42:36.024Z,49.10
2022-09-28T23:45:03.547Z,49.37
2022-09-28T23:47:31.080Z,51.37
2022-09-28T23:49:58.693Z,51.00
2022-09-28T23:52:27.556Z,49.47
2022-09-28T23:54:55.078Z,50.70
2022-09-28T23:57:22.560Z,49.70
2022-09-28T23:59:50.095Z,49.23
